Brainardsville, New York
Current Conditions -  °F | °C
As of 11:53 AM on Thursday 23 Oct 2014 (Local Time) from KPBG Reporting Station
Light Rain Light Rain  
Wind Chill: 36°   Ceiling: 1200
Heat Index: 44°   Visibility: 8mi
Dew Point: 42°   Wind: 20mph
Humidity: 93%   Direction: 350°N
Pressure: 29.99"   Gusts: NA
Location:  44.86°N, 74.03°W
Report Text: KPBG 231553Z AUTO 35017KT 8SM -RA OVC012 07/06 A2999 RMK AO2 SLP157 P0004 T00670056
Loading
Personal Weather Stations






























Interactive Weather Map
Tropical Storm Tracking
New forecast layout! Learn more

10-Day Weather Forecast

Advertisements
Track Severe Weather on mobile